Time;durP1;ratioP1;P1;durP2;ratioP2;P2;SDS_P1;SDS_P2;PMS_P1;PMS_P2;Temp;Humidity;BMP_temperature;BMP_pressure;BME280_temperature;BME280_humidity;BME280_pressure;Samples;Min_cycle;Max_cycle;Signal;HPM_P1;HPM_P2
2023/04/24 00:00:18;;;;;;;4.50;2.13;;;11.40;99.90;;;;;;5112363;28;20314;-50
2023/04/24 00:02:46;;;;;;;6.83;1.70;;;11.30;99.90;;;;;;5112025;28;20296;-49
2023/04/24 00:05:17;;;;;;;3.00;1.70;;;11.30;99.90;;;;;;5111701;28;20223;-50
2023/04/24 00:07:45;;;;;;;3.27;1.80;;;11.20;99.90;;;;;;5112413;28;20203;-50
2023/04/24 00:10:13;;;;;;;2.47;1.80;;;11.10;99.90;;;;;;5111854;28;20640;-50
2023/04/24 00:12:42;;;;;;;2.07;1.83;;;11.00;99.90;;;;;;5111846;28;20304;-50
2023/04/24 00:15:11;;;;;;;4.80;1.77;;;10.90;99.90;;;;;;5112036;28;20234;-49
2023/04/24 00:17:39;;;;;;;2.30;1.97;;;10.80;99.90;;;;;;5111638;28;20712;-49
2023/04/24 00:20:10;;;;;;;4.47;2.00;;;10.80;99.90;;;;;;5111850;28;20231;-50
2023/04/24 00:22:39;;;;;;;1.83;1.73;;;10.80;99.90;;;;;;5112004;28;20253;-50
2023/04/24 00:25:08;;;;;;;2.67;1.77;;;10.90;99.90;;;;;;5111826;28;20220;-49
2023/04/24 00:27:36;;;;;;;2.90;1.87;;;10.80;99.90;;;;;;5111590;28;20239;-50
2023/04/24 00:30:06;;;;;;;2.83;2.27;;;10.80;99.90;;;;;;5111698;28;20212;-49
2023/04/24 00:32:34;;;;;;;2.20;1.63;;;10.80;99.90;;;;;;5111791;27;20238;-49
2023/04/24 00:35:02;;;;;;;2.83;2.00;;;10.80;99.90;;;;;;5111556;28;20793;-50
2023/04/24 00:37:30;;;;;;;2.50;2.13;;;10.90;99.90;;;;;;5111444;28;20253;-50
2023/04/24 00:39:59;;;;;;;2.63;2.07;;;10.90;99.90;;;;;;5111499;28;20551;-50
2023/04/24 00:42:28;;;;;;;2.33;1.87;;;10.90;99.90;;;;;;5111504;28;20713;-49
2023/04/24 00:44:57;;;;;;;2.87;2.10;;;11.00;99.90;;;;;;5111239;28;20239;-49
2023/04/24 00:47:26;;;;;;;2.07;1.90;;;11.00;99.90;;;;;;5111153;28;20785;-50
2023/04/24 00:49:54;;;;;;;3.27;1.87;;;11.10;99.90;;;;;;5111559;28;20200;-49
2023/04/24 00:52:24;;;;;;;2.77;2.10;;;11.10;99.90;;;;;;5111260;28;20290;-50
2023/04/24 00:54:52;;;;;;;3.80;2.00;;;11.10;99.90;;;;;;5111327;28;20625;-50
2023/04/24 00:57:23;;;;;;;4.23;2.07;;;11.20;99.90;;;;;;5111057;28;20817;-50
2023/04/24 00:59:52;;;;;;;2.27;2.07;;;11.20;99.90;;;;;;5111156;28;20215;-50
2023/04/24 01:02:22;;;;;;;3.57;2.23;;;11.20;99.90;;;;;;5111125;28;20211;-50
2023/04/24 01:04:51;;;;;;;2.37;1.90;;;11.20;99.90;;;;;;5111064;28;20235;-50
2023/04/24 01:07:20;;;;;;;2.30;2.10;;;11.20;99.90;;;;;;5102593;28;20208;-50
2023/04/24 01:09:50;;;;;;;2.47;1.90;;;11.20;99.90;;;;;;5110690;28;20261;-50
2023/04/24 01:12:20;;;;;;;3.20;2.00;;;11.20;99.90;;;;;;5110794;28;20260;-50
2023/04/24 01:14:48;;;;;;;2.67;1.97;;;11.20;99.90;;;;;;5090203;28;20323;-50
2023/04/24 01:17:16;;;;;;;2.97;2.20;;;11.20;99.90;;;;;;5090338;28;20247;-49
2023/04/24 01:19:45;;;;;;;4.07;2.73;;;11.20;99.90;;;;;;5090471;28;20200;-49
2023/04/24 01:22:16;;;;;;;3.87;2.70;;;11.20;99.90;;;;;;5103024;28;20982;-49
2023/04/24 01:25:33;;;;;;;3.03;2.80;;;11.20;99.90;;;;;;5110387;28;20234;-50
2023/04/24 01:28:02;;;;;;;4.20;2.90;;;11.20;99.90;;;;;;5109791;28;20211;-49
2023/04/24 01:30:31;;;;;;;5.83;3.50;;;11.10;99.90;;;;;;5109525;28;20204;-48
2023/04/24 01:33:00;;;;;;;4.10;3.30;;;11.10;99.90;;;;;;5110684;28;20246;-50
2023/04/24 01:35:28;;;;;;;4.03;3.60;;;11.10;99.90;;;;;;5110458;28;20232;-50
2023/04/24 01:37:57;;;;;;;4.93;4.00;;;11.20;99.90;;;;;;5109758;27;20294;-50
2023/04/24 01:40:26;;;;;;;6.77;4.57;;;11.20;99.90;;;;;;5110192;28;20757;-50
2023/04/24 01:42:55;;;;;;;4.97;4.30;;;11.20;99.90;;;;;;5109541;28;20207;-49
2023/04/24 01:45:23;;;;;;;5.53;4.13;;;11.20;99.90;;;;;;5110210;28;20310;-50
2023/04/24 01:47:51;;;;;;;5.20;4.70;;;11.20;99.90;;;;;;5110330;28;20260;-50
2023/04/24 01:50:19;;;;;;;6.57;5.20;;;11.10;99.90;;;;;;5109856;28;20221;-49
2023/04/24 01:52:47;;;;;;;6.73;4.93;;;11.10;99.90;;;;;;5109645;28;20291;-49
2023/04/24 01:55:17;;;;;;;7.77;5.00;;;11.10;99.90;;;;;;5110035;28;20258;-50
2023/04/24 01:57:45;;;;;;;7.40;4.97;;;11.20;99.90;;;;;;5109389;28;20581;-50
2023/04/24 02:00:14;;;;;;;7.13;4.80;;;11.20;99.90;;;;;;5109670;28;20286;-50
2023/04/24 02:02:42;;;;;;;6.53;3.80;;;11.10;99.90;;;;;;5109802;28;20242;-50
2023/04/24 02:05:14;;;;;;;5.97;4.30;;;11.10;99.90;;;;;;5114874;27;20232;-49
2023/04/24 02:07:42;;;;;;;6.10;4.30;;;11.20;99.90;;;;;;5109566;28;20627;-50
2023/04/24 02:10:11;;;;;;;4.77;4.17;;;11.10;99.90;;;;;;5109973;28;20234;-50
2023/04/24 02:12:41;;;;;;;4.07;3.77;;;11.20;99.90;;;;;;5108758;28;20739;-50
2023/04/24 02:15:10;;;;;;;5.90;3.80;;;11.10;99.90;;;;;;5109685;28;20639;-50
2023/04/24 02:17:38;;;;;;;5.07;3.90;;;11.20;99.90;;;;;;5109509;28;20649;-50
2023/04/24 02:20:07;;;;;;;3.70;3.40;;;11.10;99.90;;;;;;5109276;28;20203;-50
2023/04/24 02:22:35;;;;;;;3.90;3.50;;;11.10;99.90;;;;;;5091617;28;20624;-50
2023/04/24 02:25:04;;;;;;;4.63;3.43;;;11.10;99.90;;;;;;5109466;28;20310;-50
2023/04/24 02:27:32;;;;;;;5.83;3.53;;;11.10;99.90;;;;;;5109155;28;20223;-50
2023/04/24 02:30:02;;;;;;;4.70;3.40;;;11.00;99.90;;;;;;5109501;28;20879;-51
2023/04/24 02:32:31;;;;;;;7.37;3.63;;;11.10;99.90;;;;;;5109131;28;20286;-50
2023/04/24 02:34:59;;;;;;;6.03;3.70;;;11.00;99.90;;;;;;5109858;28;20308;-50
2023/04/24 02:37:27;;;;;;;3.60;3.27;;;11.00;99.90;;;;;;5110358;27;20576;-50
2023/04/24 02:39:55;;;;;;;6.83;3.80;;;11.00;99.90;;;;;;5110712;28;20227;-50
2023/04/24 02:42:23;;;;;;;7.60;3.40;;;11.10;99.90;;;;;;5110429;28;20319;-49
2023/04/24 02:44:51;;;;;;;4.10;3.70;;;11.10;99.90;;;;;;5110287;28;20974;-50
2023/04/24 02:47:20;;;;;;;4.47;3.67;;;11.00;99.90;;;;;;5110081;28;20231;-50
2023/04/24 02:49:48;;;;;;;5.17;3.53;;;11.00;99.90;;;;;;5108683;28;20239;-50
2023/04/24 02:52:16;;;;;;;7.83;3.93;;;11.10;99.90;;;;;;5109338;28;20199;-48
2023/04/24 02:54:44;;;;;;;4.60;3.67;;;11.00;99.90;;;;;;5108682;28;20254;-50
2023/04/24 02:57:12;;;;;;;4.90;3.70;;;11.00;99.90;;;;;;5108622;28;20723;-50
2023/04/24 02:59:40;;;;;;;4.33;3.83;;;10.90;99.90;;;;;;5108727;28;20256;-50
2023/04/24 03:02:09;;;;;;;4.63;3.83;;;10.90;99.90;;;;;;5108849;28;20286;-49
2023/04/24 03:04:39;;;;;;;5.40;4.00;;;10.80;99.90;;;;;;5108566;28;20253;-49
2023/04/24 03:07:08;;;;;;;7.37;4.07;;;10.80;99.90;;;;;;5108505;28;20317;-50
2023/04/24 03:09:36;;;;;;;4.70;3.90;;;10.80;99.90;;;;;;5108797;28;20875;-49
2023/04/24 03:12:04;;;;;;;4.73;3.90;;;10.80;99.90;;;;;;5108507;28;20294;-49
2023/04/24 03:14:32;;;;;;;4.87;4.30;;;10.90;99.90;;;;;;5108668;28;20228;-49
2023/04/24 03:17:00;;;;;;;4.63;4.23;;;10.80;99.90;;;;;;5108612;28;20306;-49
2023/04/24 03:19:28;;;;;;;5.10;4.20;;;10.80;99.90;;;;;;5108514;28;20648;-50
2023/04/24 03:21:57;;;;;;;5.00;4.50;;;10.90;99.90;;;;;;5108803;28;20298;-50
2023/04/24 03:24:27;;;;;;;4.70;4.03;;;10.90;99.90;;;;;;5108542;28;20315;-49
2023/04/24 03:26:56;;;;;;;5.13;4.30;;;10.90;99.90;;;;;;5109093;28;20223;-50
2023/04/24 03:29:24;;;;;;;4.70;4.10;;;10.90;99.90;;;;;;5108895;28;20207;-49
2023/04/24 03:31:52;;;;;;;4.93;4.40;;;10.90;99.90;;;;;;5108724;28;20242;-49
2023/04/24 03:34:20;;;;;;;9.03;4.40;;;10.80;99.90;;;;;;5108489;28;20215;-50
2023/04/24 03:36:48;;;;;;;4.10;3.73;;;10.80;99.90;;;;;;5108663;28;20231;-49
2023/04/24 03:39:17;;;;;;;5.10;3.57;;;10.80;99.90;;;;;;5108568;28;20290;-49
2023/04/24 03:41:46;;;;;;;3.60;3.30;;;10.80;99.90;;;;;;5108798;28;20235;-50
2023/04/24 03:44:14;;;;;;;8.20;3.60;;;10.80;99.90;;;;;;5108365;28;20283;-49
2023/04/24 03:46:42;;;;;;;4.57;3.53;;;10.80;99.90;;;;;;5108494;28;20319;-50
2023/04/24 03:49:10;;;;;;;5.37;3.60;;;10.80;99.90;;;;;;5108756;28;20288;-50
2023/04/24 03:51:38;;;;;;;3.53;3.10;;;10.70;99.90;;;;;;5107760;28;20568;-49
2023/04/24 03:54:06;;;;;;;3.90;3.10;;;10.80;99.90;;;;;;5110549;28;20623;-49
2023/04/24 03:56:35;;;;;;;3.83;3.23;;;10.80;99.90;;;;;;5112109;28;20295;-49
2023/04/24 03:59:03;;;;;;;3.67;3.30;;;10.80;99.90;;;;;;5112341;28;20239;-50
2023/04/24 04:01:31;;;;;;;3.37;3.07;;;10.70;99.90;;;;;;5112066;28;20246;-49
2023/04/24 04:03:59;;;;;;;3.00;2.80;;;10.70;99.90;;;;;;5112021;28;20294;-50
2023/04/24 04:06:28;;;;;;;3.63;3.33;;;10.70;99.90;;;;;;5112604;28;20423;-50
2023/04/24 04:08:56;;;;;;;3.70;3.40;;;10.70;99.90;;;;;;5112052;28;20231;-49
2023/04/24 04:11:24;;;;;;;3.83;3.50;;;10.70;99.90;;;;;;5111959;28;20260;-49
2023/04/24 04:13:54;;;;;;;4.13;3.70;;;10.70;99.90;;;;;;5112489;28;20203;-50
2023/04/24 04:16:22;;;;;;;4.70;4.27;;;10.70;99.90;;;;;;5111773;28;20853;-51
2023/04/24 04:18:50;;;;;;;4.60;4.10;;;10.70;99.90;;;;;;5111909;28;20203;-49
2023/04/24 04:21:18;;;;;;;4.17;3.40;;;10.70;99.90;;;;;;5111790;28;20322;-50
2023/04/24 04:23:46;;;;;;;4.77;3.50;;;10.70;99.90;;;;;;5111861;28;20238;-50
2023/04/24 04:26:14;;;;;;;4.10;3.60;;;10.70;99.90;;;;;;5111806;28;20323;-50
2023/04/24 04:28:44;;;;;;;3.93;3.30;;;10.70;99.90;;;;;;5111714;28;20220;-50
2023/04/24 04:31:13;;;;;;;5.37;3.70;;;10.70;99.90;;;;;;5111561;28;20219;-51
2023/04/24 04:33:41;;;;;;;3.27;3.07;;;10.70;99.90;;;;;;5111835;28;20294;-51
2023/04/24 04:36:09;;;;;;;3.33;2.90;;;10.70;99.90;;;;;;5111771;28;20254;-51
2023/04/24 04:38:37;;;;;;;4.60;3.17;;;10.70;99.90;;;;;;5111426;28;20635;-50
2023/04/24 04:41:07;;;;;;;3.40;3.10;;;10.70;99.90;;;;;;5111303;28;20211;-51
2023/04/24 04:43:36;;;;;;;3.30;3.00;;;10.70;99.90;;;;;;5091037;28;20295;-50
2023/04/24 04:46:04;;;;;;;3.83;2.73;;;10.70;99.90;;;;;;5091322;28;20345;-51
2023/04/24 04:48:33;;;;;;;5.23;3.37;;;10.90;99.90;;;;;;5090853;28;20318;-50
2023/04/24 04:51:01;;;;;;;3.40;3.10;;;10.70;99.90;;;;;;5105263;27;20306;-51
2023/04/24 04:53:29;;;;;;;4.80;3.60;;;10.70;99.90;;;;;;5111438;28;20296;-51
2023/04/24 04:55:57;;;;;;;3.43;3.13;;;10.70;99.90;;;;;;5110734;28;20259;-50
2023/04/24 04:58:25;;;;;;;6.53;3.40;;;10.70;99.90;;;;;;5111286;28;20203;-50
2023/04/24 05:00:53;;;;;;;4.63;3.50;;;10.70;99.90;;;;;;5111265;28;20247;-50
2023/04/24 05:03:21;;;;;;;4.03;3.63;;;10.80;99.90;;;;;;5111209;28;20708;-51
2023/04/24 05:05:51;;;;;;;3.57;3.07;;;10.70;99.90;;;;;;5109984;28;20334;-51
2023/04/24 05:08:19;;;;;;;3.97;2.90;;;10.70;99.90;;;;;;5104521;28;20225;-51
2023/04/24 05:10:55;;;;;;;3.70;3.10;;;10.70;99.90;;;;;;5110112;27;20207;-50
2023/04/24 05:13:23;;;;;;;3.73;2.87;;;10.60;99.90;;;;;;5111073;28;20211;-51
2023/04/24 05:15:54;;;;;;;3.27;2.97;;;10.60;99.90;;;;;;5108261;28;20223;-51
2023/04/24 05:18:22;;;;;;;3.70;3.27;;;10.60;99.90;;;;;;5114552;27;20238;-51
2023/04/24 05:20:51;;;;;;;3.40;3.10;;;10.50;99.90;;;;;;5130852;27;20250;-51
2023/04/24 05:23:19;;;;;;;3.67;3.37;;;10.40;99.90;;;;;;5130962;27;20248;-51
2023/04/24 05:25:47;;;;;;;4.83;3.20;;;10.40;99.90;;;;;;5131083;27;20226;-50
2023/04/24 05:28:16;;;;;;;4.13;3.33;;;10.40;99.90;;;;;;5120260;27;20262;-51
2023/04/24 05:30:44;;;;;;;3.63;3.33;;;10.40;99.90;;;;;;5110317;28;20286;-51
2023/04/24 05:33:13;;;;;;;4.33;3.50;;;10.50;99.90;;;;;;5110479;28;20223;-51
2023/04/24 05:35:46;;;;;;;3.70;3.40;;;10.60;99.90;;;;;;5103392;27;20238;-51
2023/04/24 05:38:17;;;;;;;4.63;3.20;;;10.60;99.90;;;;;;5104163;28;20660;-51
2023/04/24 05:40:45;;;;;;;3.93;3.57;;;10.60;99.90;;;;;;5110323;28;20206;-50
2023/04/24 05:43:13;;;;;;;5.03;4.07;;;10.50;99.90;;;;;;5110371;28;20231;-51
2023/04/24 05:45:41;;;;;;;4.87;3.80;;;10.50;99.90;;;;;;5109883;28;20231;-51
2023/04/24 05:48:09;;;;;;;4.53;3.53;;;10.60;99.90;;;;;;5110053;28;20251;-51
2023/04/24 05:50:37;;;;;;;4.10;3.70;;;10.50;99.90;;;;;;5110279;28;20212;-51
2023/04/24 05:53:06;;;;;;;5.07;3.67;;;10.70;99.90;;;;;;5110390;28;20246;-51
2023/04/24 05:55:36;;;;;;;3.40;3.10;;;10.70;99.90;;;;;;5110121;28;20227;-51
2023/04/24 05:58:04;;;;;;;5.37;3.60;;;10.70;99.90;;;;;;5110115;28;20748;-51
2023/04/24 06:00:33;;;;;;;5.37;4.47;;;10.60;99.90;;;;;;5109953;28;20207;-51
2023/04/24 06:03:03;;;;;;;4.40;3.87;;;10.60;99.90;;;;;;5109581;28;20239;-51
2023/04/24 06:05:32;;;;;;;5.03;4.60;;;10.50;99.90;;;;;;5109667;28;20934;-51
2023/04/24 06:08:00;;;;;;;6.30;4.93;;;10.40;99.90;;;;;;5109753;28;20314;-51
2023/04/24 06:10:28;;;;;;;5.57;5.07;;;11.10;99.90;;;;;;5082474;27;20304;-51
2023/04/24 06:13:00;;;;;;;5.80;5.13;;;11.70;99.90;;;;;;5092247;28;20235;-51
2023/04/24 06:15:30;;;;;;;5.47;4.97;;;12.10;99.90;;;;;;5109156;28;20228;-51
2023/04/24 06:17:58;;;;;;;6.37;4.37;;;12.40;99.90;;;;;;5100651;28;20287;-51
2023/04/24 06:20:27;;;;;;;5.47;4.93;;;12.80;99.90;;;;;;5108855;28;20897;-51
2023/04/24 06:22:55;;;;;;;5.90;4.90;;;12.20;99.90;;;;;;5108886;28;20207;-50
2023/04/24 06:25:25;;;;;;;5.90;5.30;;;11.80;99.90;;;;;;5109587;28;20253;-51
2023/04/24 06:27:54;;;;;;;6.13;5.20;;;11.50;99.90;;;;;;5088626;28;20594;-51
2023/04/24 06:30:24;;;;;;;5.20;4.70;;;11.40;99.90;;;;;;5087035;28;20203;-50
2023/04/24 06:32:52;;;;;;;6.00;5.40;;;11.30;99.90;;;;;;5109280;28;20243;-50
2023/04/24 06:35:20;;;;;;;5.53;5.03;;;11.20;99.90;;;;;;5109010;28;20801;-51
2023/04/24 06:37:48;;;;;;;8.70;5.60;;;11.10;99.90;;;;;;5109192;28;20298;-51
2023/04/24 06:40:18;;;;;;;6.97;5.57;;;11.00;99.90;;;;;;5108845;28;20286;-51
2023/04/24 06:42:46;;;;;;;6.07;5.40;;;11.00;99.90;;;;;;5109557;28;20227;-51
2023/04/24 06:45:14;;;;;;;6.30;5.40;;;10.90;99.90;;;;;;5109163;28;20227;-50
2023/04/24 06:47:43;;;;;;;6.83;5.83;;;10.70;99.90;;;;;;5109218;28;20300;-50
2023/04/24 06:50:12;;;;;;;6.73;5.73;;;10.80;99.90;;;;;;5109194;28;21008;-50
2023/04/24 06:52:41;;;;;;;8.43;5.43;;;10.70;99.90;;;;;;5109127;28;20239;-50
2023/04/24 06:55:10;;;;;;;6.67;5.70;;;10.80;99.90;;;;;;5108841;28;20689;-50
2023/04/24 06:57:38;;;;;;;5.87;5.27;;;10.90;99.90;;;;;;5109118;28;20246;-51
2023/04/24 07:00:09;;;;;;;6.67;5.60;;;11.10;99.90;;;;;;5117378;27;20278;-50
2023/04/24 07:02:37;;;;;;;6.87;5.37;;;11.00;99.90;;;;;;5129825;27;20251;-51
2023/04/24 07:05:08;;;;;;;6.10;5.33;;;11.00;99.90;;;;;;5111106;28;20223;-50
2023/04/24 07:07:37;;;;;;;5.90;5.30;;;10.90;99.90;;;;;;5109036;28;20326;-50
2023/04/24 07:10:06;;;;;;;7.47;5.80;;;11.00;99.90;;;;;;5109069;28;20224;-51
2023/04/24 07:12:35;;;;;;;5.57;5.07;;;11.00;99.90;;;;;;5117141;28;20213;-50
2023/04/24 07:15:04;;;;;;;6.93;5.40;;;11.20;99.90;;;;;;5129548;28;20226;-51
2023/04/24 07:17:32;;;;;;;6.00;4.97;;;11.50;99.90;;;;;;5112191;28;20234;-51
2023/04/24 07:20:00;;;;;;;6.03;4.77;;;11.70;99.90;;;;;;5108639;28;20286;-50
2023/04/24 07:22:29;;;;;;;7.50;5.07;;;11.90;99.90;;;;;;5108743;28;20239;-51
2023/04/24 07:24:57;;;;;;;8.20;4.70;;;11.80;99.90;;;;;;5108530;28;20713;-51
2023/04/24 07:27:26;;;;;;;6.77;4.57;;;11.90;99.90;;;;;;5108772;28;20235;-51
2023/04/24 07:29:54;;;;;;;5.37;4.87;;;12.10;99.90;;;;;;5112252;28;20267;-50
2023/04/24 07:32:22;;;;;;;7.47;4.90;;;12.30;99.90;;;;;;5112710;28;20212;-50
2023/04/24 07:34:50;;;;;;;6.57;4.67;;;12.20;99.90;;;;;;5112905;28;20679;-51
2023/04/24 07:37:18;;;;;;;5.30;4.77;;;12.30;99.90;;;;;;5112770;28;20200;-51
2023/04/24 07:39:47;;;;;;;5.37;4.60;;;12.30;99.90;;;;;;5113088;28;20629;-51
2023/04/24 07:42:15;;;;;;;5.93;5.20;;;12.30;99.90;;;;;;5112463;28;20293;-51
2023/04/24 07:44:43;;;;;;;6.17;4.90;;;12.20;99.90;;;;;;5112606;28;20259;-51
2023/04/24 07:47:11;;;;;;;5.70;4.90;;;12.00;99.90;;;;;;5113104;28;20215;-51
2023/04/24 07:49:39;;;;;;;6.97;5.53;;;12.00;99.90;;;;;;5112281;28;20259;-51
2023/04/24 07:52:08;;;;;;;8.80;5.53;;;12.10;99.90;;;;;;5112551;28;20207;-51
2023/04/24 07:54:36;;;;;;;4.73;4.33;;;12.20;99.90;;;;;;5112295;28;20274;-51
2023/04/24 07:57:08;;;;;;;5.53;4.43;;;12.30;99.90;;;;;;5111955;28;20769;-51
2023/04/24 07:59:36;;;;;;;5.87;4.77;;;12.30;99.90;;;;;;5112011;28;20200;-51
2023/04/24 08:02:04;;;;;;;7.03;5.00;;;12.20;99.90;;;;;;5111987;28;20227;-50
2023/04/24 08:04:32;;;;;;;5.73;5.13;;;12.10;99.90;;;;;;5112550;28;20285;-51
2023/04/24 08:07:00;;;;;;;6.37;4.67;;;12.10;99.90;;;;;;5111949;28;20214;-51
2023/04/24 08:09:28;;;;;;;6.10;5.03;;;12.10;99.90;;;;;;5111992;28;20223;-51
2023/04/24 08:11:57;;;;;;;5.07;4.53;;;12.10;99.90;;;;;;5111641;28;20241;-51
2023/04/24 08:14:26;;;;;;;6.03;4.90;;;12.30;99.90;;;;;;5106932;27;21084;-51
2023/04/24 08:16:55;;;;;;;5.77;4.50;;;12.80;99.90;;;;;;5104589;28;20268;-51
2023/04/24 08:19:23;;;;;;;5.23;4.73;;;13.60;99.90;;;;;;5103643;28;20231;-50
2023/04/24 08:21:51;;;;;;;5.43;4.40;;;14.00;99.90;;;;;;5110624;28;20204;-51
2023/04/24 08:24:19;;;;;;;5.33;4.83;;;14.50;99.90;;;;;;5109157;28;20243;-50
2023/04/24 08:26:50;;;;;;;5.10;4.63;;;14.30;99.90;;;;;;5106985;28;20214;-51
2023/04/24 08:29:18;;;;;;;5.07;4.50;;;14.10;99.90;;;;;;5111912;28;20316;-51
2023/04/24 08:31:47;;;;;;;4.70;4.30;;;13.70;99.90;;;;;;5110093;28;20254;-51
2023/04/24 08:34:15;;;;;;;4.60;3.93;;;13.30;99.90;;;;;;5111496;28;20219;-50
2023/04/24 08:36:43;;;;;;;4.33;3.93;;;13.10;99.90;;;;;;5111221;28;20295;-51
2023/04/24 08:39:14;;;;;;;4.83;4.10;;;12.90;99.90;;;;;;5110962;28;20200;-50
2023/04/24 08:41:45;;;;;;;6.43;4.27;;;12.40;99.90;;;;;;5100543;28;20230;-51
2023/04/24 08:44:15;;;;;;;5.13;4.00;;;12.50;99.90;;;;;;5113578;27;20264;-51
2023/04/24 08:46:45;;;;;;;5.33;3.83;;;12.50;99.90;;;;;;5116622;27;20723;-51
2023/04/24 08:49:16;;;;;;;4.73;4.13;;;12.50;99.90;;;;;;5114071;27;20223;-51
2023/04/24 08:51:46;;;;;;;5.33;3.93;;;12.50;99.90;;;;;;5109233;27;20665;-51
2023/04/24 08:54:14;;;;;;;4.57;4.17;;;12.60;99.90;;;;;;5102270;28;20195;-49
2023/04/24 08:56:45;;;;;;;4.87;4.40;;;12.50;99.90;;;;;;5111515;28;20208;-49
2023/04/24 08:59:14;;;;;;;4.00;3.70;;;12.30;99.90;;;;;;5111700;28;20235;-49
2023/04/24 09:01:42;;;;;;;4.37;3.50;;;12.30;99.90;;;;;;5111681;27;20249;-49
2023/04/24 09:04:11;;;;;;;3.50;3.20;;;12.20;99.90;;;;;;5111159;28;20203;-49
2023/04/24 09:06:42;;;;;;;4.07;3.53;;;12.20;99.90;;;;;;5111779;28;20199;-49
2023/04/24 09:09:12;;;;;;;4.73;3.37;;;12.10;99.90;;;;;;5111133;28;20200;-49
2023/04/24 09:11:41;;;;;;;3.23;2.93;;;12.10;99.90;;;;;;5111112;28;20207;-49
2023/04/24 09:14:10;;;;;;;3.93;3.10;;;12.10;99.90;;;;;;5111316;28;20203;-49
2023/04/24 09:16:38;;;;;;;4.83;3.50;;;12.00;99.90;;;;;;5110969;28;20211;-50
2023/04/24 09:19:06;;;;;;;3.87;3.50;;;12.00;99.90;;;;;;5103143;27;20203;-50
2023/04/24 09:21:35;;;;;;;3.27;2.97;;;12.00;99.90;;;;;;5104457;28;20227;-50
2023/04/24 09:24:07;;;;;;;3.87;3.37;;;12.00;99.90;;;;;;5110500;28;20210;-51
2023/04/24 09:26:37;;;;;;;4.03;3.17;;;12.00;99.90;;;;;;5110585;28;20294;-51
2023/04/24 09:29:05;;;;;;;3.67;3.30;;;12.10;99.90;;;;;;5110548;28;20199;-50
2023/04/24 09:31:33;;;;;;;5.30;3.60;;;12.20;99.90;;;;;;5124300;27;20223;-49
2023/04/24 09:34:05;;;;;;;3.33;3.10;;;12.20;99.90;;;;;;5118003;27;20207;-51
2023/04/24 09:36:37;;;;;;;3.90;3.50;;;12.20;99.90;;;;;;5117379;27;20282;-51
2023/04/24 09:39:10;;;;;;;4.00;3.47;;;12.30;99.90;;;;;;5117935;27;20207;-52
2023/04/24 09:41:45;;;;;;;4.00;3.60;;;12.50;99.90;;;;;;5110119;27;20199;-52
2023/04/24 09:44:15;;;;;;;4.47;3.07;;;12.70;99.90;;;;;;5108924;28;20223;-51
2023/04/24 09:46:44;;;;;;;4.40;3.07;;;12.50;99.90;;;;;;5109796;28;20298;-51
2023/04/24 09:49:16;;;;;;;3.30;3.00;;;12.40;99.90;;;;;;5109716;28;20207;-51
2023/04/24 09:51:44;;;;;;;3.50;3.20;;;12.40;99.90;;;;;;5109714;28;20259;-51
2023/04/24 09:54:17;;;;;;;3.20;2.80;;;12.40;99.90;;;;;;5109748;28;20291;-51
2023/04/24 09:56:47;;;;;;;3.00;2.67;;;12.40;99.90;;;;;;5109953;28;20315;-51
2023/04/24 09:59:16;;;;;;;6.00;2.70;;;12.30;99.90;;;;;;5110222;28;20212;-51
2023/04/24 10:01:45;;;;;;;3.40;3.10;;;12.40;99.90;;;;;;5106799;28;20211;-51
2023/04/24 10:04:18;;;;;;;3.43;3.00;;;12.40;99.90;;;;;;5102835;28;20639;-51
2023/04/24 10:06:48;;;;;;;2.60;2.40;;;12.60;99.90;;;;;;5108995;28;20243;-51
2023/04/24 10:09:18;;;;;;;3.13;2.20;;;12.50;99.90;;;;;;5088496;28;20203;-51
2023/04/24 10:11:48;;;;;;;2.80;2.60;;;12.30;99.90;;;;;;5095974;28;20227;-51
2023/04/24 10:14:22;;;;;;;4.67;2.37;;;12.20;99.90;;;;;;5108652;28;20294;-51
2023/04/24 10:16:53;;;;;;;2.83;2.60;;;12.00;99.90;;;;;;5111356;27;20276;-51
2023/04/24 10:19:22;;;;;;;2.67;2.47;;;11.80;99.90;;;;;;5108476;28;20239;-51
2023/04/24 10:21:50;;;;;;;2.60;2.40;;;11.90;99.90;;;;;;5108769;28;20200;-51
2023/04/24 10:24:21;;;;;;;2.37;2.20;;;11.80;99.90;;;;;;5108370;28;20208;-51
2023/04/24 10:26:49;;;;;;;2.73;2.43;;;11.80;99.90;;;;;;5108956;28;20212;-51
2023/04/24 10:29:19;;;;;;;2.53;2.00;;;11.60;99.90;;;;;;5108578;28;20752;-51
2023/04/24 10:31:47;;;;;;;2.20;2.00;;;11.50;99.90;;;;;;5108517;28;20224;-50
2023/04/24 10:34:17;;;;;;;1.90;1.80;;;11.60;99.90;;;;;;5108549;28;20560;-51
2023/04/24 10:36:51;;;;;;;1.50;1.40;;;11.60;99.90;;;;;;5108237;28;20701;-50
2023/04/24 10:39:22;;;;;;;1.40;1.30;;;11.80;99.90;;;;;;5108750;28;20207;-50
2023/04/24 10:41:57;;;;;;;1.50;1.40;;;12.10;99.90;;;;;;5107919;28;20192;-51
2023/04/24 10:44:26;;;;;;;1.17;1.10;;;12.00;99.90;;;;;;5108531;28;20208;-51
2023/04/24 10:46:56;;;;;;;1.33;1.23;;;11.80;99.90;;;;;;5108430;28;20214;-51
2023/04/24 10:49:29;;;;;;;0.83;0.83;;;11.80;99.90;;;;;;5108744;28;20587;-51
2023/04/24 10:52:03;;;;;;;1.17;1.10;;;11.60;99.90;;;;;;5108073;28;20226;-51
2023/04/24 10:54:36;;;;;;;0.80;0.80;;;11.50;99.90;;;;;;5108277;28;20273;-51
2023/04/24 10:57:32;;;;;;;0.80;0.80;;;11.80;99.90;;;;;;5107945;28;20219;-53
2023/04/24 11:00:19;;;;;;;0.70;0.70;;;11.70;99.90;;;;;;5105956;28;20212;-51
2023/04/24 11:02:52;;;;;;;0.60;0.60;;;11.80;99.90;;;;;;5107041;28;20235;-51
2023/04/24 11:05:23;;;;;;;1.27;0.93;;;11.80;99.90;;;;;;5108079;28;20259;-51
2023/04/24 11:08:15;;;;;;;0.67;0.30;;;11.80;99.90;;;;;;5108140;28;20235;-51
2023/04/24 11:10:55;;;;;;;1.03;0.30;;;11.50;99.90;;;;;;5107988;28;20231;-51
2023/04/24 11:13:24;;;;;;;0.53;0.27;;;11.40;99.90;;;;;;5107665;28;20203;-51
2023/04/24 11:16:13;;;;;;;0.87;0.50;;;11.40;99.90;;;;;;5108956;28;20219;-50
2023/04/24 11:18:45;;;;;;;1.50;0.40;;;11.20;99.90;;;;;;5099820;28;20211;-51
2023/04/24 11:21:14;;;;;;;0.37;0.30;;;11.20;99.90;;;;;;5089773;28;20208;-51
2023/04/24 11:23:42;;;;;;;1.70;0.37;;;11.20;99.90;;;;;;5104192;28;20231;-50
2023/04/24 11:26:19;;;;;;;0.30;0.30;;;11.40;99.90;;;;;;5108508;28;20310;-50
2023/04/24 11:28:49;;;;;;;0.43;0.43;;;11.40;99.90;;;;;;5128403;28;20290;-51
2023/04/24 11:31:37;;;;;;;0.43;0.43;;;11.30;99.90;;;;;;5129328;28;20222;-51
2023/04/24 11:34:09;;;;;;;0.60;0.60;;;11.20;99.90;;;;;;5128899;28;20215;-51
2023/04/24 11:36:37;;;;;;;0.80;0.80;;;11.20;99.90;;;;;;5129406;28;20282;-51
2023/04/24 11:39:06;;;;;;;0.57;0.57;;;11.40;99.90;;;;;;5127960;28;20242;-50
2023/04/24 11:41:36;;;;;;;0.50;0.50;;;11.50;99.90;;;;;;5129008;28;20214;-51
2023/04/24 11:44:06;;;;;;;0.50;0.50;;;11.60;99.90;;;;;;5117061;28;20286;-50
2023/04/24 11:46:35;;;;;;;0.63;0.63;;;11.40;99.90;;;;;;5107970;28;20242;-51
2023/04/24 11:49:03;;;;;;;0.80;0.47;;;11.20;99.90;;;;;;5108546;28;20207;-51
2023/04/24 11:51:31;;;;;;;0.53;0.47;;;11.20;99.90;;;;;;5108783;28;20664;-51
2023/04/24 11:54:18;;;;;;;0.67;0.63;;;11.30;99.90;;;;;;5108656;28;20239;-51
2023/04/24 11:56:47;;;;;;;4.40;0.87;;;11.50;99.90;;;;;;5108454;28;20298;-51
2023/04/24 11:59:15;;;;;;;0.40;0.40;;;11.50;99.90;;;;;;5095726;28;20234;-51
2023/04/24 12:01:45;;;;;;;0.87;0.67;;;11.50;99.90;;;;;;5086904;28;20690;-50
2023/04/24 12:04:14;;;;;;;0.60;0.60;;;11.70;99.90;;;;;;5087401;28;20200;-50
2023/04/24 12:07:00;;;;;;;0.67;0.67;;;11.60;99.90;;;;;;5096950;28;20583;-51
2023/04/24 12:09:28;;;;;;;0.70;0.70;;;11.50;99.90;;;;;;5103480;28;20294;-51
2023/04/24 12:11:57;;;;;;;0.70;0.70;;;11.70;99.90;;;;;;5120954;28;20227;-51
2023/04/24 12:14:26;;;;;;;0.87;0.60;;;11.70;99.90;;;;;;5122063;27;20238;-51
2023/04/24 12:16:54;;;;;;;0.70;0.70;;;11.70;99.90;;;;;;5125097;27;20295;-51
2023/04/24 12:19:23;;;;;;;1.50;0.77;;;11.80;99.90;;;;;;5130147;27;20622;-51
2023/04/24 12:22:09;;;;;;;0.73;0.70;;;11.80;99.90;;;;;;5129151;27;20199;-51
2023/04/24 12:24:56;;;;;;;0.70;0.70;;;11.90;99.90;;;;;;5131853;27;20262;-50
2023/04/24 12:27:26;;;;;;;0.90;0.90;;;12.10;99.90;;;;;;5132056;27;20249;-51
2023/04/24 12:29:56;;;;;;;0.97;0.70;;;12.40;99.90;;;;;;5131929;27;20260;-51
2023/04/24 12:32:25;;;;;;;0.90;0.90;;;12.50;99.90;;;;;;5131830;27;20229;-51
2023/04/24 12:34:56;;;;;;;0.70;0.70;;;12.40;99.90;;;;;;5119399;27;20933;-51
2023/04/24 12:37:25;;;;;;;1.17;1.03;;;12.60;99.90;;;;;;5128044;27;20294;-51
2023/04/24 12:40:00;;;;;;;0.90;0.90;;;12.50;99.90;;;;;;5130358;27;20260;-51
2023/04/24 12:42:31;;;;;;;1.00;1.00;;;12.50;99.90;;;;;;5120082;27;20684;-51
2023/04/24 12:45:00;;;;;;;1.00;1.00;;;12.70;99.90;;;;;;5129429;27;20250;-51
2023/04/24 12:47:29;;;;;;;1.30;1.17;;;12.70;99.90;;;;;;5124404;27;20245;-51
2023/04/24 12:49:57;;;;;;;1.10;1.10;;;12.50;99.90;;;;;;5130338;27;20231;-51
2023/04/24 12:52:26;;;;;;;1.30;1.20;;;12.30;99.90;;;;;;5131522;27;20313;-51
2023/04/24 12:54:55;;;;;;;1.70;1.60;;;12.20;99.90;;;;;;5131308;27;20227;-51
2023/04/24 12:57:24;;;;;;;1.50;1.40;;;12.00;99.90;;;;;;5131394;27;20740;-51
2023/04/24 12:59:54;;;;;;;1.57;1.47;;;12.00;99.90;;;;;;5131233;27;20284;-51